Ride Results

The Don Challenge Saturday (23-10-2010)
Ride distance: 80.0 km

Outcomes - The Don Challenge Saturday (23-10-2010)
Division No. of Entries Retired / DNE Completed Withdrawn Ineligible V/O Percentage Completed
HW 3 - 2 - - 1 66.67%
MW 16 - 12 2 - 2 75.00%
LW 12 - 11 1 - - 91.67%
JN 2 - 2 - - - 100.00%
Totals 33 - 27 3 - 3 81.82%
Results - The Don Challenge Saturday (23-10-2010)
No. Rider Horse Place Time Leg Speeds Total
Km/Hr
H/R bpm
Heavyweight
174 Matthew Gadsby Ra Silver Dancer 1 (BC) 7:27:00 8.2, 17.1, 9.5 10.74 39, 53, 53, 49 (Avg:51)
182 Jackie Swan Shantele 2 8:06:00 10.9, 9.5, 8.9 9.88 33, 40, 45, 44 (Avg:43)
181 Steve Swan Longrun Silver Flynn Lame L2 0:00:00 10.9, 9.8 - 34, 45, 47 (Avg:46)
Middleweight
163 Dean Chamberlain Annordean Sir Zac 1 (BC) 5:35:00 15.5, 12.9, 14.9 14.33 37, 42, 49, 53 (Avg:48)
178 Errol Watt Yul-Arai Hassan 2 6:34:00 14.9, 12.6, 9.0 12.18 40, 42, 48, 52 (Avg:47)
169 Ondy Laws-King Razorback Love Song 3 6:39:00 12.4, 11.1, 12.9 12.03 35, 35, 41, 42 (Avg:39)
176 Camila Champagne-Bargenquast Inshallah Maximus 4 7:06:00 11.5, 11.1, 11.0 11.27 45, 48, 47, 49 (Avg:48)
130 Bridget Macintyre Poede Ashanti 5 7:10:00 14.9, 10.2, 8.8 11.16 46, 48, 51, 59 (Avg:52)
173 Liz Terry Ausden Illusion 6 7:27:00 11.4, 11.2, 9.2 10.74 35, 45, 54, 51 (Avg:50)
133 Caroline Fitzgerald Lanamere De Javu 7 7:56:00 11.3, 9.7, 8.9 10.08 38, 39, 52, 49 (Avg:46)
167 Ute Jordan Charaway Amici 8 8:06:00 10.4, 10.4, 8.5 9.88 40, 42, 49, 52 (Avg:47)
180 Donna Pearce Windhaven Hussein 9 8:07:00 11.6, 10.2, 7.6 9.86 38, 40, 52, 51 (Avg:47)
168 Kerryn Agnew Performance Park Menphis Rain 10 8:13:00 11.0, 9.8, 8.1 9.74 36, 44, 51, 57 (Avg:50)
170 Angela Head Heathfield's Roxy 10 8:13:00 11.0, 9.8, 8.1 9.74 36, 40, 55, 46 (Avg:47)
160 Daniel Williams Brookleigh Diablo 12 8:34:00 7.4, 11.5, 10.1 9.34 46, 42, 45, 42 (Avg:43)
172 Marion Lengronne Splendacrest Perfection Lame L3 0:00:00 15.5, 13.9, 14.1 - 34, 48, 49, 55 (Avg:50)
159 Ken Moir Anwaar Heart Rate L3 0:00:00 10.4, 10.4, 9.6 - 60, 49, 47, 68 (Avg:54)
121 Patricia De Bruiyn Polly Widthdrawn L2 0:00:00 - - 37, 40, 52 (Avg:46)
120 Warwick Percival Blondie Widthdrawn L2 0:00:00 - - 30, 43, 58 (Avg:50)
Lightweight
164 Annette Chamberlain Annordean Lady Lilly 1 (BC) 6:10:00 15.5, 12.3, 11.1 12.97 39, 44, 46, 45 (Avg:45)
165 Margaret Harvey Banbra Tamara 2 6:39:00 13.8, 10.4, 12.3 12.03 30, 36, 43, 48 (Avg:42)
183 Clare Fleming Naz-Ton Beau Brummel 3 6:49:00 14.4, 12.4, 8.6 11.74 41, 43, 43, 46 (Avg:44)
126 Sonya Ryan Lindall Farvio 4 7:56:00 11.3, 9.7, 8.9 10.08 31, 40, 53, 58 (Avg:50)
166 Sue Jones Hinterland Hellfire 5 8:06:00 10.4, 10.4, 8.5 9.88 42, 48, 46, 44 (Avg:46)
179 Jocelyn Barnes Trinity 6 8:07:00 11.6, 10.2, 7.6 9.86 34, 45, 53, 42 (Avg:46)
162 Lesley Page Rowallan Milan 7 8:34:00 7.4, 11.5, 10.1 9.34 41, 41, 52, 47 (Avg:46)
161 Emma Watson Brookleigh Quasar 7 8:34:00 7.4, 11.5, 10.1 9.34 42, 46, 50, 46 (Avg:47)
177 Marjorie Demarliere Bonnie Downs Aisha 9 9:15:00 10.1, 8.1, 7.5 8.65 34, 40, 52, 49 (Avg:47)
123 Wendy Jones Shellal Cattle King Flyte 10 9:19:00 8.6, 8.4, 8.6 8.59 40, 44, 45, 47 (Avg:45)
122 Allix Jones Clovelly Park Samson 10 9:19:00 8.6, 8.4, 8.6 8.59 38, 44, 0, 52 (Avg:32)
154 Angela Hawks Dunwingeri Ebony Moon Widthdrawn L2 0:00:00 - - 34, 42, 48 (Avg:45)
Junior
171 Hannah Terry Dardanga Fingal 1 (BC) 7:06:00 11.4, 10.9, 11.5 11.27 32, 46, 42, 45 (Avg:44)
175 Rhiannon Corney Bonnie Downs Rarby 2 9:15:00 10.1, 8.1, 7.5 8.65 44, 48, 47, 48 (Avg:47)